createdAt,value
2018-09-09T00:02:18.317Z,0.77
2018-09-09T00:04:53.125Z,0.87
2018-09-09T00:07:28.129Z,0.90
2018-09-09T00:10:03.311Z,0.90
2018-09-09T00:12:38.102Z,0.70
2018-09-09T00:15:13.138Z,0.83
2018-09-09T00:17:48.198Z,0.87
2018-09-09T00:20:23.037Z,0.90
2018-09-09T00:22:57.831Z,0.80
2018-09-09T00:25:32.925Z,0.90
2018-09-09T00:28:07.798Z,0.80
2018-09-09T00:30:42.672Z,0.80
2018-09-09T00:33:17.647Z,0.70
2018-09-09T00:35:52.479Z,0.73
2018-09-09T00:38:27.786Z,0.83
2018-09-09T00:41:03.116Z,0.77
2018-09-09T00:43:38.017Z,0.80
2018-09-09T00:46:12.935Z,0.90
2018-09-09T00:48:47.966Z,1.00
2018-09-09T00:51:28.352Z,0.80
2018-09-09T00:54:02.986Z,0.90
2018-09-09T00:56:38.013Z,0.80
2018-09-09T00:59:13.143Z,0.80
2018-09-09T01:01:48.289Z,0.80
2018-09-09T01:04:23.336Z,0.70
2018-09-09T01:06:58.168Z,0.70
2018-09-09T01:09:33.828Z,0.80
2018-09-09T01:12:08.818Z,1.20
2018-09-09T01:14:43.861Z,0.80
2018-09-09T01:17:18.694Z,0.73
2018-09-09T01:19:53.705Z,1.23
2018-09-09T01:22:28.541Z,0.73
2018-09-09T01:25:03.322Z,1.00
2018-09-09T01:27:38.234Z,0.90
2018-09-09T01:30:13.073Z,0.90
2018-09-09T01:32:47.824Z,1.00
2018-09-09T01:35:22.638Z,0.83
2018-09-09T01:37:57.421Z,1.07
2018-09-09T01:40:32.186Z,0.73
2018-09-09T01:43:07.219Z,0.90
2018-09-09T01:45:42.050Z,0.97
2018-09-09T01:48:17.088Z,1.00
2018-09-09T01:50:52.180Z,0.90
2018-09-09T01:53:27.273Z,0.73
2018-09-09T01:56:02.397Z,0.67
2018-09-09T01:58:37.247Z,0.90
2018-09-09T02:01:12.268Z,0.90
2018-09-09T02:03:47.091Z,0.80
2018-09-09T02:06:22.460Z,1.00
2018-09-09T02:08:57.388Z,1.00
2018-09-09T02:11:32.417Z,0.80
2018-09-09T02:14:07.585Z,1.13
2018-09-09T02:16:42.656Z,0.90
2018-09-09T02:19:17.816Z,1.00
2018-09-09T02:21:53.033Z,0.60
2018-09-09T02:24:28.550Z,0.90
2018-09-09T02:27:03.246Z,0.90
2018-09-09T02:29:38.067Z,0.87
2018-09-09T02:32:13.221Z,0.93
2018-09-09T02:34:48.322Z,0.80
2018-09-09T02:37:23.462Z,0.83
2018-09-09T02:39:58.629Z,0.90
2018-09-09T02:42:33.528Z,1.03
2018-09-09T02:45:08.572Z,0.83
2018-09-09T02:47:43.706Z,0.93
2018-09-09T02:50:18.798Z,0.90
2018-09-09T02:52:53.678Z,0.90
2018-09-09T02:55:28.685Z,0.90
2018-09-09T02:58:03.867Z,0.93
2018-09-09T03:00:38.914Z,1.07
2018-09-09T03:03:13.838Z,1.00
2018-09-09T03:05:48.828Z,0.90
2018-09-09T03:08:23.688Z,0.83
2018-09-09T03:11:04.109Z,1.00
2018-09-09T03:13:39.006Z,0.77
2018-09-09T03:16:13.798Z,1.00
2018-09-09T03:18:48.677Z,0.93
2018-09-09T03:21:23.569Z,1.20
2018-09-09T03:23:58.615Z,0.90
2018-09-09T03:26:33.774Z,0.90
2018-09-09T03:29:08.773Z,1.03
2018-09-09T03:31:43.629Z,0.83
2018-09-09T03:34:18.297Z,1.00
2018-09-09T03:36:53.209Z,0.80
2018-09-09T03:39:28.019Z,1.03
2018-09-09T03:42:03.212Z,0.97
2018-09-09T03:44:38.229Z,0.90
2018-09-09T03:47:13.109Z,0.70
2018-09-09T03:49:48.120Z,0.67
2018-09-09T03:52:22.912Z,0.90
2018-09-09T03:54:57.945Z,0.80
2018-09-09T03:57:33.023Z,0.70
2018-09-09T04:00:08.177Z,0.80
2018-09-09T04:02:43.225Z,0.80
2018-09-09T04:05:18.290Z,0.60
2018-09-09T04:07:53.604Z,1.40
2018-09-09T04:10:28.390Z,0.83
2018-09-09T04:13:03.402Z,0.90
2018-09-09T04:15:38.213Z,1.00
2018-09-09T04:18:13.027Z,0.70
2018-09-09T04:20:47.814Z,1.00
2018-09-09T04:23:22.623Z,1.00
2018-09-09T04:25:57.650Z,0.93
2018-09-09T04:28:32.459Z,1.23
2018-09-09T04:31:07.356Z,1.03
2018-09-09T04:33:42.428Z,0.83
2018-09-09T04:36:17.244Z,1.00
2018-09-09T04:38:52.284Z,0.90
2018-09-09T04:41:27.116Z,1.00
2018-09-09T04:44:02.105Z,0.90
2018-09-09T04:46:37.302Z,1.10
2018-09-09T04:49:12.121Z,0.93
2018-09-09T04:51:47.125Z,0.80
2018-09-09T04:54:21.924Z,0.90
2018-09-09T04:56:56.917Z,0.83
2018-09-09T04:59:32.023Z,0.97
2018-09-09T05:02:06.814Z,1.00
2018-09-09T05:04:41.849Z,1.03
2018-09-09T05:07:16.704Z,1.00
2018-09-09T05:09:51.707Z,1.03
2018-09-09T05:12:26.766Z,1.00
2018-09-09T05:15:01.571Z,1.00
2018-09-09T05:17:36.626Z,0.90
2018-09-09T05:20:11.489Z,0.80
2018-09-09T05:22:46.118Z,1.10
2018-09-09T05:25:21.120Z,0.93
2018-09-09T05:27:55.924Z,0.70
2018-09-09T05:30:30.981Z,1.00
2018-09-09T05:33:06.052Z,0.80
2018-09-09T05:35:40.890Z,0.90
2018-09-09T05:38:15.675Z,1.00
2018-09-09T05:40:50.694Z,1.00
2018-09-09T05:43:25.749Z,0.87
2018-09-09T05:46:00.832Z,1.13
2018-09-09T05:48:35.967Z,0.90
2018-09-09T05:51:11.005Z,0.70
2018-09-09T05:53:45.949Z,1.00
2018-09-09T05:56:20.847Z,0.80
2018-09-09T05:58:55.636Z,1.10
2018-09-09T06:01:30.513Z,1.10
2018-09-09T06:04:05.704Z,0.80
2018-09-09T06:06:40.858Z,0.93
2018-09-09T06:09:15.944Z,1.00
2018-09-09T06:11:51.022Z,1.17
2018-09-09T06:14:26.189Z,1.40
2018-09-09T06:17:01.237Z,1.40
2018-09-09T06:19:36.161Z,0.80
2018-09-09T06:22:11.225Z,1.00
2018-09-09T06:24:46.310Z,1.00
2018-09-09T06:27:21.130Z,1.00
2018-09-09T06:29:56.188Z,1.10
2018-09-09T06:32:31.079Z,1.13
2018-09-09T06:35:06.072Z,1.10
2018-09-09T06:37:41.101Z,1.23
2018-09-09T06:40:15.964Z,0.93
2018-09-09T06:42:50.740Z,0.80
2018-09-09T06:45:25.372Z,0.90
2018-09-09T06:48:00.144Z,1.10
2018-09-09T06:50:35.149Z,1.20
2018-09-09T06:53:10.056Z,0.80
2018-09-09T06:55:44.852Z,1.30
2018-09-09T06:58:19.866Z,0.90
2018-09-09T07:00:54.806Z,0.90
2018-09-09T07:03:29.876Z,0.97
2018-09-09T07:06:04.917Z,0.97
2018-09-09T07:08:40.309Z,1.07
2018-09-09T07:11:15.268Z,0.93
2018-09-09T07:13:50.520Z,1.10
2018-09-09T07:16:25.324Z,1.00
2018-09-09T07:19:00.715Z,1.40
2018-09-09T07:21:35.753Z,1.00
2018-09-09T07:24:11.069Z,0.80
2018-09-09T07:26:46.281Z,0.90
2018-09-09T07:29:21.312Z,0.90
2018-09-09T07:31:56.253Z,1.10
2018-09-09T07:34:30.888Z,1.07
2018-09-09T07:37:05.829Z,1.07
2018-09-09T07:39:41.245Z,0.90
2018-09-09T07:42:16.281Z,0.90
2018-09-09T07:44:51.457Z,0.80
2018-09-09T07:47:26.468Z,1.17
2018-09-09T07:50:01.730Z,1.20
2018-09-09T07:52:36.774Z,1.10
2018-09-09T07:55:11.611Z,1.17
2018-09-09T07:57:46.683Z,1.10
2018-09-09T08:00:21.720Z,1.23
2018-09-09T08:02:57.182Z,1.17
2018-09-09T08:05:31.984Z,1.40
2018-09-09T08:08:06.742Z,0.80
2018-09-09T08:10:41.825Z,1.00
2018-09-09T08:13:16.892Z,0.90
2018-09-09T08:15:52.274Z,1.20
2018-09-09T08:18:27.399Z,0.70
2018-09-09T08:21:02.230Z,0.93
2018-09-09T08:23:37.673Z,1.10
2018-09-09T08:26:12.724Z,0.97
2018-09-09T08:28:47.937Z,0.90
2018-09-09T08:31:23.800Z,1.13
2018-09-09T08:33:58.789Z,1.37
2018-09-09T08:36:33.817Z,1.10
2018-09-09T08:39:10.120Z,1.00
2018-09-09T08:41:45.206Z,0.90
2018-09-09T08:44:20.005Z,1.20
2018-09-09T08:46:54.752Z,1.10
2018-09-09T08:49:29.805Z,1.00
2018-09-09T08:52:04.739Z,0.90
2018-09-09T08:54:39.911Z,1.03
2018-09-09T08:57:14.755Z,1.00
2018-09-09T08:59:49.401Z,1.03
2018-09-09T09:02:24.229Z,1.20
2018-09-09T09:04:59.247Z,1.20
2018-09-09T09:07:34.591Z,1.10
2018-09-09T09:10:09.311Z,0.93
2018-09-09T09:12:44.085Z,1.00
2018-09-09T09:15:19.127Z,1.20
2018-09-09T09:17:54.428Z,1.30
2018-09-09T09:20:29.877Z,1.00
2018-09-09T09:23:04.635Z,1.20
2018-09-09T09:25:44.649Z,1.10
2018-09-09T09:28:20.515Z,0.90
2018-09-09T09:30:55.534Z,0.93
2018-09-09T09:33:30.599Z,1.03
2018-09-09T09:36:05.645Z,0.80
2018-09-09T09:38:40.736Z,1.43
2018-09-09T09:41:15.826Z,1.00
2018-09-09T09:43:50.946Z,0.90
2018-09-09T09:46:25.985Z,1.20
2018-09-09T09:49:00.629Z,0.90
2018-09-09T09:51:35.521Z,0.90
2018-09-09T09:54:10.317Z,0.90
2018-09-09T09:56:45.353Z,0.90
2018-09-09T09:59:20.176Z,1.00
2018-09-09T10:01:55.185Z,1.03
2018-09-09T10:04:30.341Z,0.80
2018-09-09T10:07:05.393Z,0.83
2018-09-09T10:09:40.497Z,0.80
2018-09-09T10:12:15.353Z,1.00
2018-09-09T10:14:50.392Z,0.80
2018-09-09T10:17:25.248Z,1.00
2018-09-09T10:19:59.871Z,1.03
2018-09-09T10:22:34.753Z,0.90
2018-09-09T10:25:09.850Z,1.07
2018-09-09T10:27:44.911Z,1.10
2018-09-09T10:30:19.538Z,0.80
2018-09-09T10:32:54.568Z,1.10
2018-09-09T10:35:29.590Z,0.80
2018-09-09T10:38:04.415Z,1.17
2018-09-09T10:40:39.453Z,1.10
2018-09-09T10:43:14.526Z,1.00
2018-09-09T10:45:49.317Z,0.80
2018-09-09T10:48:24.247Z,1.00
2018-09-09T10:50:59.580Z,1.10
2018-09-09T10:53:34.582Z,1.10
2018-09-09T10:56:09.534Z,0.80
2018-09-09T10:58:44.646Z,1.20
2018-09-09T11:01:19.853Z,0.90
2018-09-09T11:03:54.915Z,0.90
2018-09-09T11:06:29.956Z,1.00
2018-09-09T11:09:06.834Z,1.00
2018-09-09T11:11:41.972Z,1.00
2018-09-09T11:14:16.821Z,0.80
2018-09-09T11:16:51.596Z,0.90
2018-09-09T11:19:26.368Z,0.90
2018-09-09T11:22:01.134Z,1.00
2018-09-09T11:24:36.228Z,1.23
2018-09-09T11:27:11.097Z,1.23
2018-09-09T11:29:46.175Z,1.07
2018-09-09T11:32:21.198Z,0.90
2018-09-09T11:34:56.044Z,1.00
2018-09-09T11:37:31.087Z,1.10
2018-09-09T11:40:06.200Z,1.10
2018-09-09T11:42:41.201Z,1.07
2018-09-09T11:45:16.116Z,1.00
2018-09-09T11:47:51.177Z,0.80
2018-09-09T11:50:26.213Z,1.00
2018-09-09T11:53:01.093Z,1.20
2018-09-09T11:55:36.452Z,0.90
2018-09-09T11:58:11.289Z,0.80
2018-09-09T12:00:46.098Z,1.13
2018-09-09T12:03:20.729Z,1.17
2018-09-09T12:05:55.741Z,0.80
2018-09-09T12:08:30.830Z,0.97
2018-09-09T12:11:06.424Z,0.90
2018-09-09T12:13:41.298Z,0.90
2018-09-09T12:16:16.460Z,0.97
2018-09-09T12:18:51.290Z,1.07
2018-09-09T12:21:26.101Z,1.07
2018-09-09T12:24:01.150Z,1.00
2018-09-09T12:26:35.943Z,1.03
2018-09-09T12:29:10.951Z,1.00
2018-09-09T12:31:45.769Z,0.70
2018-09-09T12:34:20.568Z,0.90
2018-09-09T12:36:55.593Z,1.13
2018-09-09T12:39:30.466Z,1.20
2018-09-09T12:42:05.253Z,0.90
2018-09-09T12:44:48.086Z,1.00
2018-09-09T12:49:33.615Z,1.27
2018-09-09T12:52:08.608Z,0.93
2018-09-09T12:54:43.799Z,0.70
2018-09-09T12:57:18.862Z,0.90
2018-09-09T12:59:53.695Z,0.90
2018-09-09T13:02:28.571Z,0.90
2018-09-09T13:05:03.583Z,1.00
2018-09-09T13:07:38.421Z,0.80
2018-09-09T13:10:13.435Z,0.83
2018-09-09T13:12:53.872Z,0.90
2018-09-09T13:15:28.520Z,0.83
2018-09-09T13:18:03.530Z,1.20
2018-09-09T13:20:38.613Z,0.70
2018-09-09T13:23:13.421Z,0.90
2018-09-09T13:25:48.442Z,0.90
2018-09-09T13:28:23.274Z,1.20
2018-09-09T13:30:58.282Z,0.73
2018-09-09T13:33:33.343Z,0.87
2018-09-09T13:36:08.693Z,0.80
2018-09-09T13:38:43.826Z,1.03
2018-09-09T13:41:19.044Z,1.00
2018-09-09T13:43:53.843Z,1.03
2018-09-09T13:46:28.547Z,0.80
2018-09-09T13:49:03.342Z,0.90
2018-09-09T13:51:38.126Z,0.90
2018-09-09T13:54:12.942Z,0.70
2018-09-09T13:56:47.959Z,0.83
2018-09-09T13:59:22.867Z,0.90
2018-09-09T14:01:57.619Z,1.00
2018-09-09T14:04:32.626Z,1.17
2018-09-09T14:07:07.436Z,0.90
2018-09-09T14:09:42.267Z,1.00
2018-09-09T14:12:17.247Z,0.90
2018-09-09T14:14:52.285Z,0.70
2018-09-09T14:17:27.399Z,0.93
2018-09-09T14:20:02.463Z,1.00
2018-09-09T14:22:37.569Z,0.90
2018-09-09T14:25:12.620Z,0.87
2018-09-09T14:27:47.639Z,1.00
2018-09-09T14:30:22.732Z,0.70
2018-09-09T14:32:57.554Z,0.80
2018-09-09T14:35:32.572Z,0.87
2018-09-09T14:38:07.488Z,0.90
2018-09-09T14:40:42.516Z,0.87
2018-09-09T14:43:17.341Z,0.90
2018-09-09T14:45:52.425Z,1.10
2018-09-09T14:48:27.630Z,1.00
2018-09-09T14:51:02.738Z,1.00
2018-09-09T14:53:37.962Z,1.00
2018-09-09T14:56:13.275Z,0.70
2018-09-09T14:58:48.314Z,0.90
2018-09-09T15:01:23.445Z,0.70
2018-09-09T15:03:58.541Z,0.93
2018-09-09T15:06:33.656Z,0.80
2018-09-09T15:09:09.541Z,0.97
2018-09-09T15:11:44.590Z,1.00
2018-09-09T15:14:19.959Z,0.80
2018-09-09T15:16:54.792Z,1.30
2018-09-09T15:19:29.764Z,1.77
2018-09-09T15:22:04.976Z,1.97
2018-09-09T15:24:39.796Z,2.20
2018-09-09T15:27:09.296Z,2.10
2018-09-09T15:29:38.619Z,1.50
2018-09-09T15:32:07.943Z,2.07
2018-09-09T15:34:37.060Z,1.67
2018-09-09T15:37:06.170Z,1.43
2018-09-09T15:39:35.508Z,1.50
2018-09-09T15:42:05.092Z,1.63
2018-09-09T15:44:35.299Z,1.40
2018-09-09T15:47:04.629Z,1.70
2018-09-09T15:49:33.986Z,1.40
2018-09-09T15:52:03.558Z,1.80
2018-09-09T15:54:33.085Z,1.80
2018-09-09T15:57:02.640Z,1.60
2018-09-09T15:59:32.193Z,2.10
2018-09-09T16:02:01.521Z,1.70
2018-09-09T16:04:31.354Z,1.77
2018-09-09T16:07:00.667Z,1.77
2018-09-09T16:09:29.799Z,1.67
2018-09-09T16:11:58.888Z,1.80
2018-09-09T16:14:28.037Z,1.73
2018-09-09T16:16:57.396Z,2.20
2018-09-09T16:19:26.968Z,1.50
2018-09-09T16:21:56.442Z,1.82
2018-09-09T16:24:25.826Z,2.27
2018-09-09T16:26:55.658Z,1.90
2018-09-09T16:29:25.052Z,2.20
2018-09-09T16:31:54.396Z,1.90
2018-09-09T16:34:23.740Z,1.90
2018-09-09T16:36:53.079Z,2.10
2018-09-09T16:39:22.412Z,2.30
2018-09-09T16:41:51.749Z,1.90
2018-09-09T16:44:21.403Z,1.97
2018-09-09T16:46:51.514Z,2.30
2018-09-09T16:49:21.133Z,2.27
2018-09-09T16:51:50.421Z,2.23
2018-09-09T16:54:19.521Z,2.93
2018-09-09T16:56:48.618Z,1.70
2018-09-09T16:59:17.978Z,1.93
2018-09-09T17:01:47.686Z,1.77
2018-09-09T17:04:16.980Z,2.43
2018-09-09T17:06:46.323Z,1.90
2018-09-09T17:09:15.404Z,2.40
2018-09-09T17:11:44.536Z,1.60
2018-09-09T17:14:13.711Z,2.07
2018-09-09T17:16:42.737Z,2.13
2018-09-09T17:19:12.060Z,2.07
2018-09-09T17:21:41.603Z,1.80
2018-09-09T17:24:10.921Z,2.65
2018-09-09T17:26:40.222Z,1.80
2018-09-09T17:29:10.024Z,1.83
2018-09-09T17:31:39.598Z,2.08
2018-09-09T17:34:09.137Z,2.33
2018-09-09T17:36:38.468Z,1.70
2018-09-09T17:39:08.476Z,2.73
2018-09-09T17:41:38.992Z,2.10
2018-09-09T17:44:08.083Z,1.67
2018-09-09T17:46:37.190Z,2.10
2018-09-09T17:49:06.896Z,2.10
2018-09-09T17:51:36.463Z,2.60
2018-09-09T17:54:06.510Z,2.80
2018-09-09T17:56:36.104Z,2.03
2018-09-09T17:59:05.446Z,2.27
2018-09-09T18:01:35.170Z,2.60
2018-09-09T18:04:04.291Z,2.20
2018-09-09T18:06:33.387Z,2.13
2018-09-09T18:09:02.853Z,2.27
2018-09-09T18:11:32.278Z,2.10
2018-09-09T18:14:01.845Z,1.60
2018-09-09T18:16:31.775Z,1.90
2018-09-09T18:19:00.865Z,2.63
2018-09-09T18:21:29.972Z,2.27
2018-09-09T18:23:59.757Z,1.60
2018-09-09T18:26:29.852Z,2.30
2018-09-09T18:28:59.717Z,2.10
2018-09-09T18:31:29.407Z,2.30
2018-09-09T18:33:58.744Z,2.17
2018-09-09T18:36:28.172Z,2.27
2018-09-09T18:38:57.867Z,2.00
2018-09-09T18:41:27.283Z,2.00
2018-09-09T18:43:56.613Z,2.13
2018-09-09T18:46:25.938Z,2.50
2018-09-09T18:48:55.527Z,2.67
2018-09-09T18:51:25.010Z,2.13
2018-09-09T18:53:54.120Z,2.43
2018-09-09T18:56:23.214Z,1.87
2018-09-09T18:58:52.556Z,1.90
2018-09-09T19:01:22.103Z,2.17
2018-09-09T19:03:51.456Z,2.20
2018-09-09T19:06:20.883Z,1.87
2018-09-09T19:08:50.712Z,1.70
2018-09-09T19:11:20.031Z,2.00
2018-09-09T19:13:49.867Z,2.20
2018-09-09T19:16:19.379Z,1.63
2018-09-09T19:18:48.687Z,2.30
2018-09-09T19:21:18.366Z,2.30
2018-09-09T19:23:48.290Z,2.15
2018-09-09T19:26:17.832Z,2.57
2018-09-09T19:28:47.402Z,1.77
2018-09-09T19:31:16.732Z,2.00
2018-09-09T19:33:46.097Z,1.70
2018-09-09T19:36:15.400Z,2.00
2018-09-09T19:38:44.754Z,2.40
2018-09-09T19:41:14.290Z,1.90
2018-09-09T19:43:43.608Z,1.63
2018-09-09T19:46:13.250Z,1.83
2018-09-09T19:48:42.654Z,2.40
2018-09-09T19:51:11.944Z,2.97
2018-09-09T19:53:41.282Z,2.10
2018-09-09T19:56:10.619Z,2.10
2018-09-09T19:58:39.966Z,1.90
2018-09-09T20:01:09.312Z,1.87
2018-09-09T20:03:38.418Z,1.77
2018-09-09T20:06:07.736Z,2.00
2018-09-09T20:08:36.857Z,2.17
2018-09-09T20:11:06.193Z,1.80
2018-09-09T20:13:35.498Z,2.33
2018-09-09T20:16:04.868Z,2.03
2018-09-09T20:18:34.234Z,2.17
2018-09-09T20:21:03.324Z,2.20
2018-09-09T20:23:32.844Z,2.30
2018-09-09T20:26:02.737Z,2.53
2018-09-09T20:28:32.572Z,1.93
2018-09-09T20:31:02.470Z,1.90
2018-09-09T20:33:32.296Z,1.60
2018-09-09T20:36:01.391Z,2.00
2018-09-09T20:38:30.520Z,2.03
2018-09-09T20:40:59.609Z,1.60
2018-09-09T20:43:29.085Z,2.00
2018-09-09T20:45:58.437Z,2.10
2018-09-09T20:48:27.979Z,2.27
2018-09-09T20:50:57.600Z,1.97
2018-09-09T20:53:26.931Z,1.83
2018-09-09T20:55:56.248Z,1.90
2018-09-09T20:58:25.362Z,1.33
2018-09-09T21:00:55.376Z,1.73
2018-09-09T21:03:24.917Z,2.03
2018-09-09T21:05:54.453Z,1.90
2018-09-09T21:08:23.999Z,2.20
2018-09-09T21:10:53.533Z,1.90
2018-09-09T21:13:23.096Z,1.70
2018-09-09T21:15:52.927Z,1.80
2018-09-09T21:18:22.249Z,1.80
2018-09-09T21:20:51.805Z,1.62
2018-09-09T21:23:21.361Z,1.53
2018-09-09T21:25:52.188Z,1.70
2018-09-09T21:28:21.944Z,1.90
2018-09-09T21:30:51.369Z,2.20
2018-09-09T21:33:20.689Z,1.67
2018-09-09T21:35:50.153Z,1.67
2018-09-09T21:38:19.244Z,1.57
2018-09-09T21:40:48.668Z,1.80
2018-09-09T21:43:18.026Z,1.60
2018-09-09T21:45:47.569Z,1.92
2018-09-09T21:48:17.128Z,1.97
2018-09-09T21:50:46.897Z,1.40
2018-09-09T21:53:16.225Z,1.70
2018-09-09T21:55:45.800Z,1.60
2018-09-09T21:58:15.096Z,1.60
2018-09-09T22:00:49.784Z,1.80
2018-09-09T22:03:19.376Z,1.47
2018-09-09T22:05:48.922Z,2.00
2018-09-09T22:08:18.473Z,1.60
2018-09-09T22:10:48.029Z,1.60
2018-09-09T22:13:17.567Z,2.03
2018-09-09T22:15:47.102Z,1.47
2018-09-09T22:18:16.660Z,1.70
2018-09-09T22:20:45.968Z,1.50
2018-09-09T22:23:15.315Z,1.90
2018-09-09T22:25:44.625Z,1.40
2018-09-09T22:28:13.965Z,1.27
2018-09-09T22:30:43.515Z,1.40
2018-09-09T22:33:12.834Z,1.85
2018-09-09T22:35:42.169Z,1.60
2018-09-09T22:38:11.719Z,1.67
2018-09-09T22:40:41.023Z,1.73
2018-09-09T22:43:10.362Z,1.40
2018-09-09T22:45:40.877Z,1.33
2018-09-09T22:48:11.406Z,1.50
2018-09-09T22:50:41.215Z,1.60
2018-09-09T22:53:10.537Z,1.37
2018-09-09T22:55:39.833Z,1.20
2018-09-09T22:58:08.926Z,1.40
2018-09-09T23:00:38.051Z,1.67
2018-09-09T23:03:07.873Z,1.33
2018-09-09T23:05:37.790Z,1.37
2018-09-09T23:08:07.659Z,1.23
2018-09-09T23:10:37.868Z,1.57
2018-09-09T23:13:07.779Z,1.70
2018-09-09T23:15:37.803Z,1.75
2018-09-09T23:18:07.753Z,1.40
2018-09-09T23:20:38.152Z,1.73
2018-09-09T23:23:08.079Z,1.80
2018-09-09T23:25:38.289Z,1.42
2018-09-09T23:28:08.633Z,1.45
2018-09-09T23:30:38.421Z,1.45
2018-09-09T23:33:09.063Z,1.47
2018-09-09T23:35:38.598Z,1.20
2018-09-09T23:38:08.865Z,1.40
2018-09-09T23:40:38.689Z,1.40
2018-09-09T23:43:08.912Z,1.32
2018-09-09T23:45:38.594Z,1.70
2018-09-09T23:48:08.134Z,1.90
2018-09-09T23:50:37.689Z,1.30
2018-09-09T23:53:07.172Z,2.00
2018-09-09T23:55:36.506Z,1.30
2018-09-09T23:58:06.056Z,1.70
